sensor_id;sensor_type;location;lat;lon;timestamp;pressure;altitude;pressure_sealevel;temperature;humidity
53011;BME280;42803;55.762;38.084;2023-04-06T00:01:25;100248.81;;;2.20;100.00
53011;BME280;42803;55.762;38.084;2023-04-06T00:03:54;100252.53;;;2.22;100.00
53011;BME280;42803;55.762;38.084;2023-04-06T00:06:23;100256.75;;;2.14;100.00
53011;BME280;42803;55.762;38.084;2023-04-06T00:08:52;100252.13;;;2.12;100.00
53011;BME280;42803;55.762;38.084;2023-04-06T00:11:21;100248.25;;;2.08;100.00
53011;BME280;42803;55.762;38.084;2023-04-06T00:13:50;100257.47;;;2.06;100.00
53011;BME280;42803;55.762;38.084;2023-04-06T00:16:22;100245.50;;;2.07;100.00
53011;BME280;42803;55.762;38.084;2023-04-06T00:18:54;100251.97;;;2.10;100.00
53011;BME280;42803;55.762;38.084;2023-04-06T00:21:24;100256.53;;;2.06;100.00
53011;BME280;42803;55.762;38.084;2023-04-06T00:23:54;100253.41;;;2.01;100.00
53011;BME280;42803;55.762;38.084;2023-04-06T00:26:23;100253.22;;;2.00;100.00
53011;BME280;42803;55.762;38.084;2023-04-06T00:28:55;100255.59;;;1.98;100.00
53011;BME280;42803;55.762;38.084;2023-04-06T00:31:26;100256.53;;;1.91;100.00
53011;BME280;42803;55.762;38.084;2023-04-06T00:33:57;100256.31;;;1.90;100.00
53011;BME280;42803;55.762;38.084;2023-04-06T00:36:27;100249.72;;;1.92;100.00
53011;BME280;42803;55.762;38.084;2023-04-06T00:38:56;100257.06;;;1.96;100.00
53011;BME280;42803;55.762;38.084;2023-04-06T00:41:25;100248.22;;;1.94;100.00
53011;BME280;42803;55.762;38.084;2023-04-06T00:43:55;100255.59;;;1.91;100.00
53011;BME280;42803;55.762;38.084;2023-04-06T00:46:24;100254.47;;;1.89;100.00
53011;BME280;42803;55.762;38.084;2023-04-06T00:48:56;100247.50;;;1.88;100.00
53011;BME280;42803;55.762;38.084;2023-04-06T00:51:25;100250.78;;;1.87;100.00
53011;BME280;42803;55.762;38.084;2023-04-06T00:53:54;100251.88;;;1.82;100.00
53011;BME280;42803;55.762;38.084;2023-04-06T00:56:24;100249.13;;;1.80;100.00
53011;BME280;42803;55.762;38.084;2023-04-06T00:58:54;100244.16;;;1.82;100.00
53011;BME280;42803;55.762;38.084;2023-04-06T01:01:23;100240.13;;;1.84;100.00
53011;BME280;42803;55.762;38.084;2023-04-06T01:03:59;100244.53;;;1.85;100.00
53011;BME280;42803;55.762;38.084;2023-04-06T01:06:28;100246.00;;;1.83;100.00
53011;BME280;42803;55.762;38.084;2023-04-06T01:09:01;100243.06;;;1.87;100.00
53011;BME280;42803;55.762;38.084;2023-04-06T01:11:30;100241.44;;;1.87;100.00
53011;BME280;42803;55.762;38.084;2023-04-06T01:14:03;100236.44;;;1.82;100.00
53011;BME280;42803;55.762;38.084;2023-04-06T01:16:47;100248.75;;;1.77;100.00
53011;BME280;42803;55.762;38.084;2023-04-06T01:19:22;100243.22;;;1.74;100.00
53011;BME280;42803;55.762;38.084;2023-04-06T01:21:53;100246.69;;;1.67;100.00
53011;BME280;42803;55.762;38.084;2023-04-06T01:24:33;100242.66;;;1.69;100.00
53011;BME280;42803;55.762;38.084;2023-04-06T01:27:38;100234.78;;;1.68;100.00
53011;BME280;42803;55.762;38.084;2023-04-06T01:30:23;100244.84;;;1.66;100.00
53011;BME280;42803;55.762;38.084;2023-04-06T01:32:59;100245.59;;;1.65;100.00
53011;BME280;42803;55.762;38.084;2023-04-06T01:35:43;100242.63;;;1.62;100.00
53011;BME280;42803;55.762;38.084;2023-04-06T01:38:16;100232.31;;;1.55;100.00
53011;BME280;42803;55.762;38.084;2023-04-06T01:40:49;100236.38;;;1.53;100.00
53011;BME280;42803;55.762;38.084;2023-04-06T01:43:21;100240.03;;;1.55;100.00
53011;BME280;42803;55.762;38.084;2023-04-06T01:46:19;100237.81;;;1.51;100.00
53011;BME280;42803;55.762;38.084;2023-04-06T01:48:50;100237.81;;;1.51;100.00
53011;BME280;42803;55.762;38.084;2023-04-06T01:51:37;100243.88;;;1.52;100.00
53011;BME280;42803;55.762;38.084;2023-04-06T01:54:09;100240.22;;;1.50;100.00
53011;BME280;42803;55.762;38.084;2023-04-06T01:56:52;100245.88;;;1.47;100.00
53011;BME280;42803;55.762;38.084;2023-04-06T01:59:30;100241.44;;;1.39;100.00
53011;BME280;42803;55.762;38.084;2023-04-06T02:02:05;100246.94;;;1.35;100.00
53011;BME280;42803;55.762;38.084;2023-04-06T02:04:35;100241.81;;;1.35;100.00
53011;BME280;42803;55.762;38.084;2023-04-06T02:07:11;100253.53;;;1.33;100.00
53011;BME280;42803;55.762;38.084;2023-04-06T02:09:40;100246.72;;;1.26;100.00
53011;BME280;42803;55.762;38.084;2023-04-06T02:12:18;100250.25;;;1.34;100.00
53011;BME280;42803;55.762;38.084;2023-04-06T02:14:48;100257.38;;;1.29;100.00
53011;BME280;42803;55.762;38.084;2023-04-06T02:17:17;100261.78;;;1.23;100.00
53011;BME280;42803;55.762;38.084;2023-04-06T02:19:46;100253.13;;;1.23;100.00
53011;BME280;42803;55.762;38.084;2023-04-06T02:22:16;100259.72;;;1.20;100.00
53011;BME280;42803;55.762;38.084;2023-04-06T02:24:45;100262.13;;;1.19;100.00
53011;BME280;42803;55.762;38.084;2023-04-06T02:27:14;100262.69;;;1.24;100.00
53011;BME280;42803;55.762;38.084;2023-04-06T02:29:48;100259.19;;;1.23;100.00
53011;BME280;42803;55.762;38.084;2023-04-06T02:32:20;100270.00;;;1.20;100.00
53011;BME280;42803;55.762;38.084;2023-04-06T02:34:49;100272.75;;;1.22;100.00
53011;BME280;42803;55.762;38.084;2023-04-06T02:37:20;100266.19;;;1.24;100.00
53011;BME280;42803;55.762;38.084;2023-04-06T02:39:50;100277.00;;;1.21;100.00
53011;BME280;42803;55.762;38.084;2023-04-06T02:42:21;100270.94;;;1.21;100.00
53011;BME280;42803;55.762;38.084;2023-04-06T02:44:53;100273.31;;;1.19;100.00
53011;BME280;42803;55.762;38.084;2023-04-06T02:47:26;100278.13;;;1.24;100.00
53011;BME280;42803;55.762;38.084;2023-04-06T02:49:55;100279.59;;;1.29;100.00
53011;BME280;42803;55.762;38.084;2023-04-06T02:52:24;100291.72;;;1.30;100.00
53011;BME280;42803;55.762;38.084;2023-04-06T02:54:54;100286.25;;;1.34;100.00
53011;BME280;42803;55.762;38.084;2023-04-06T02:57:27;100282.59;;;1.39;100.00
53011;BME280;42803;55.762;38.084;2023-04-06T02:59:57;100284.81;;;1.43;100.00
53011;BME280;42803;55.762;38.084;2023-04-06T03:02:38;100279.31;;;1.47;100.00
53011;BME280;42803;55.762;38.084;2023-04-06T03:05:12;100285.97;;;1.52;100.00
53011;BME280;42803;55.762;38.084;2023-04-06T03:07:43;100298.28;;;1.55;100.00
53011;BME280;42803;55.762;38.084;2023-04-06T03:10:20;100294.28;;;1.57;100.00
53011;BME280;42803;55.762;38.084;2023-04-06T03:12:50;100299.25;;;1.62;100.00
53011;BME280;42803;55.762;38.084;2023-04-06T03:15:25;100293.75;;;1.66;100.00
53011;BME280;42803;55.762;38.084;2023-04-06T03:18:04;100295.22;;;1.71;100.00
53011;BME280;42803;55.762;38.084;2023-04-06T03:20:41;100290.47;;;1.75;100.00
53011;BME280;42803;55.762;38.084;2023-04-06T03:23:10;100302.44;;;1.81;100.00
53011;BME280;42803;55.762;38.084;2023-04-06T03:25:42;100300.78;;;1.82;100.00
53011;BME280;42803;55.762;38.084;2023-04-06T03:28:15;100299.50;;;1.85;100.00
53011;BME280;42803;55.762;38.084;2023-04-06T03:30:58;100305.56;;;1.86;100.00
53011;BME280;42803;55.762;38.084;2023-04-06T03:33:43;100301.94;;;1.91;100.00
53011;BME280;42803;55.762;38.084;2023-04-06T03:36:21;100301.94;;;1.91;100.00
53011;BME280;42803;55.762;38.084;2023-04-06T03:38:50;100302.13;;;2.00;100.00
53011;BME280;42803;55.762;38.084;2023-04-06T03:41:21;100308.59;;;2.03;100.00
53011;BME280;42803;55.762;38.084;2023-04-06T03:44:00;100304.53;;;2.05;100.00
53011;BME280;42803;55.762;38.084;2023-04-06T03:46:30;100305.66;;;2.07;100.00
53011;BME280;42803;55.762;38.084;2023-04-06T03:49:00;100313.41;;;2.14;100.00
53011;BME280;42803;55.762;38.084;2023-04-06T03:55:12;100315.03;;;2.21;100.00
53011;BME280;42803;55.762;38.084;2023-04-06T03:57:41;100315.44;;;2.24;100.00
53011;BME280;42803;55.762;38.084;2023-04-06T04:00:11;100322.25;;;2.24;100.00
53011;BME280;42803;55.762;38.084;2023-04-06T04:03:09;100319.69;;;2.31;100.00
53011;BME280;42803;55.762;38.084;2023-04-06T04:05:39;100324.50;;;2.42;100.00
53011;BME280;42803;55.762;38.084;2023-04-06T04:08:09;100323.38;;;2.47;100.00
53011;BME280;42803;55.762;38.084;2023-04-06T04:10:52;100326.50;;;2.52;100.00
53011;BME280;42803;55.762;38.084;2023-04-06T04:13:23;100329.28;;;2.53;100.00
53011;BME280;42803;55.762;38.084;2023-04-06T04:15:53;100325.97;;;2.61;100.00
53011;BME280;42803;55.762;38.084;2023-04-06T04:18:24;100330.75;;;2.65;100.00
53011;BME280;42803;55.762;38.084;2023-04-06T04:20:54;100338.34;;;2.71;100.00
53011;BME280;42803;55.762;38.084;2023-04-06T04:23:24;100337.22;;;2.76;100.00
53011;BME280;42803;55.762;38.084;2023-04-06T04:25:54;100331.88;;;2.89;100.00
53011;BME280;42803;55.762;38.084;2023-04-06T04:28:23;100343.47;;;2.92;100.00
53011;BME280;42803;55.762;38.084;2023-04-06T04:30:54;100328.91;;;2.93;100.00
53011;BME280;42803;55.762;38.084;2023-04-06T04:33:25;100330.41;;;2.98;100.00
53011;BME280;42803;55.762;38.084;2023-04-06T04:35:56;100334.06;;;3.07;100.00
53011;BME280;42803;55.762;38.084;2023-04-06T04:38:35;100341.59;;;3.20;100.00
53011;BME280;42803;55.762;38.084;2023-04-06T04:41:05;100330.72;;;3.23;100.00
53011;BME280;42803;55.762;38.084;2023-04-06T04:43:37;100340.28;;;3.38;100.00
53011;BME280;42803;55.762;38.084;2023-04-06T04:46:07;100339.53;;;3.46;100.00
53011;BME280;42803;55.762;38.084;2023-04-06T04:48:43;100337.31;;;3.49;100.00
53011;BME280;42803;55.762;38.084;2023-04-06T04:51:13;100326.59;;;3.53;100.00
53011;BME280;42803;55.762;38.084;2023-04-06T04:54:01;100328.06;;;3.58;100.00
53011;BME280;42803;55.762;38.084;2023-04-06T04:56:32;100338.19;;;3.64;100.00
53011;BME280;42803;55.762;38.084;2023-04-06T04:59:19;100334.69;;;3.71;100.00
53011;BME280;42803;55.762;38.084;2023-04-06T05:01:56;100332.06;;;3.78;100.00
53011;BME280;42803;55.762;38.084;2023-04-06T05:04:36;100330.88;;;3.97;100.00
53011;BME280;42803;55.762;38.084;2023-04-06T05:07:08;100355.94;;;4.05;100.00
53011;BME280;42803;55.762;38.084;2023-04-06T05:09:40;100340.97;;;4.10;100.00
53011;BME280;42803;55.762;38.084;2023-04-06T05:12:10;100336.63;;;4.25;100.00
53011;BME280;42803;55.762;38.084;2023-04-06T05:14:53;100339.50;;;4.35;100.00
53011;BME280;42803;55.762;38.084;2023-04-06T05:17:23;100340.38;;;4.43;100.00
53011;BME280;42803;55.762;38.084;2023-04-06T05:19:54;100338.69;;;4.50;100.00
53011;BME280;42803;55.762;38.084;2023-04-06T05:22:25;100339.56;;;4.58;100.00
53011;BME280;42803;55.762;38.084;2023-04-06T05:25:03;100337.03;;;4.51;100.00
53011;BME280;42803;55.762;38.084;2023-04-06T05:27:33;100331.34;;;4.69;100.00
53011;BME280;42803;55.762;38.084;2023-04-06T05:30:08;100329.41;;;4.82;100.00
53011;BME280;42803;55.762;38.084;2023-04-06T05:32:43;100332.13;;;5.07;100.00
53011;BME280;42803;55.762;38.084;2023-04-06T05:35:14;100334.28;;;5.34;100.00
53011;BME280;42803;55.762;38.084;2023-04-06T05:37:47;100329.44;;;5.37;98.58
53011;BME280;42803;55.762;38.084;2023-04-06T05:40:16;100325.78;;;5.35;98.69
53011;BME280;42803;55.762;38.084;2023-04-06T05:42:45;100335.78;;;5.32;98.45
53011;BME280;42803;55.762;38.084;2023-04-06T05:45:15;100326.28;;;5.40;98.26
53011;BME280;42803;55.762;38.084;2023-04-06T05:47:51;100333.22;;;5.48;97.07
53011;BME280;42803;55.762;38.084;2023-04-06T05:50:29;100340.47;;;5.43;95.89
53011;BME280;42803;55.762;38.084;2023-04-06T05:52:58;100333.91;;;5.54;96.59
53011;BME280;42803;55.762;38.084;2023-04-06T05:55:33;100331.13;;;5.68;96.04
53011;BME280;42803;55.762;38.084;2023-04-06T05:58:18;100332.22;;;5.70;94.76
53011;BME280;42803;55.762;38.084;2023-04-06T06:00:50;100337.06;;;5.83;94.75
53011;BME280;42803;55.762;38.084;2023-04-06T06:03:21;100334.41;;;5.74;94.03
53011;BME280;42803;55.762;38.084;2023-04-06T06:06:00;100341.78;;;5.94;93.18
53011;BME280;42803;55.762;38.084;2023-04-06T06:08:49;100334.69;;;6.00;92.41
53011;BME280;42803;55.762;38.084;2023-04-06T06:11:20;100339.00;;;6.08;91.24
53011;BME280;42803;55.762;38.084;2023-04-06T06:13:50;100337.72;;;6.21;90.98
53011;BME280;42803;55.762;38.084;2023-04-06T06:16:19;100334.47;;;6.30;90.35
53011;BME280;42803;55.762;38.084;2023-04-06T06:18:48;100330.00;;;6.29;89.12
53011;BME280;42803;55.762;38.084;2023-04-06T06:21:19;100340.13;;;6.35;89.32
53011;BME280;42803;55.762;38.084;2023-04-06T06:26:59;100357.75;;;6.71;87.80
53011;BME280;42803;55.762;38.084;2023-04-06T06:32:19;100341.69;;;6.66;86.40
53011;BME280;42803;55.762;38.084;2023-04-06T06:34:51;100344.03;;;6.72;85.36
53011;BME280;42803;55.762;38.084;2023-04-06T06:37:21;100337.00;;;6.71;85.46
53011;BME280;42803;55.762;38.084;2023-04-06T06:40:12;100338.00;;;6.89;85.14
53011;BME280;42803;55.762;38.084;2023-04-06T06:42:44;100331.13;;;7.14;84.98
53011;BME280;42803;55.762;38.084;2023-04-06T06:45:20;100332.72;;;7.38;83.94
53011;BME280;42803;55.762;38.084;2023-04-06T06:47:49;100331.81;;;7.54;83.03
53011;BME280;42803;55.762;38.084;2023-04-06T06:50:22;100333.38;;;7.52;82.35
53011;BME280;42803;55.762;38.084;2023-04-06T06:55:39;100333.06;;;7.67;81.53
53011;BME280;42803;55.762;38.084;2023-04-06T06:58:26;100330.06;;;7.71;81.21
53011;BME280;42803;55.762;38.084;2023-04-06T07:01:14;100332.78;;;7.81;80.19
53011;BME280;42803;55.762;38.084;2023-04-06T07:03:43;100311.56;;;8.11;80.74
53011;BME280;42803;55.762;38.084;2023-04-06T07:06:12;100340.28;;;8.13;79.13
53011;BME280;42803;55.762;38.084;2023-04-06T07:09:01;100333.56;;;7.97;78.99
53011;BME280;42803;55.762;38.084;2023-04-06T07:12:07;100328.22;;;8.30;79.52
53011;BME280;42803;55.762;38.084;2023-04-06T07:14:59;100340.44;;;8.31;77.63
53011;BME280;42803;55.762;38.084;2023-04-06T07:17:29;100334.34;;;8.22;77.47
53011;BME280;42803;55.762;38.084;2023-04-06T07:19:59;100324.25;;;8.25;77.74
53011;BME280;42803;55.762;38.084;2023-04-06T07:22:30;100315.53;;;8.42;77.22
53011;BME280;42803;55.762;38.084;2023-04-06T07:25:01;100315.69;;;8.44;76.29
53011;BME280;42803;55.762;38.084;2023-04-06T07:27:30;100321.94;;;8.54;76.17
53011;BME280;42803;55.762;38.084;2023-04-06T07:30:00;100317.78;;;8.74;75.50
53011;BME280;42803;55.762;38.084;2023-04-06T07:32:30;100310.53;;;8.80;74.60
53011;BME280;42803;55.762;38.084;2023-04-06T07:34:59;100321.03;;;8.99;74.46
53011;BME280;42803;55.762;38.084;2023-04-06T07:37:29;100319.47;;;9.10;73.77
53011;BME280;42803;55.762;38.084;2023-04-06T07:39:58;100317.00;;;9.20;74.00
53011;BME280;42803;55.762;38.084;2023-04-06T07:42:30;100308.97;;;9.27;73.13
53011;BME280;42803;55.762;38.084;2023-04-06T07:45:01;100315.63;;;9.42;73.20
53011;BME280;42803;55.762;38.084;2023-04-06T07:47:32;100308.63;;;9.60;72.60
53011;BME280;42803;55.762;38.084;2023-04-06T07:50:01;100302.44;;;9.68;71.56
53011;BME280;42803;55.762;38.084;2023-04-06T07:52:31;100311.06;;;9.86;71.35
53011;BME280;42803;55.762;38.084;2023-04-06T07:55:04;100305.28;;;9.99;70.72
53011;BME280;42803;55.762;38.084;2023-04-06T07:57:35;100309.16;;;9.75;69.94
53011;BME280;42803;55.762;38.084;2023-04-06T08:00:07;100311.84;;;9.85;70.60
53011;BME280;42803;55.762;38.084;2023-04-06T08:02:39;100318.75;;;10.04;69.87
53011;BME280;42803;55.762;38.084;2023-04-06T08:05:09;100309.53;;;9.88;68.88
53011;BME280;42803;55.762;38.084;2023-04-06T08:07:38;100321.78;;;9.89;68.47
53011;BME280;42803;55.762;38.084;2023-04-06T08:10:08;100315.28;;;9.94;68.35
53011;BME280;42803;55.762;38.084;2023-04-06T08:12:38;100320.09;;;10.09;67.59
53011;BME280;42803;55.762;38.084;2023-04-06T08:15:08;100312.06;;;10.16;67.51
53011;BME280;42803;55.762;38.084;2023-04-06T08:17:37;100312.91;;;10.25;66.70
53011;BME280;42803;55.762;38.084;2023-04-06T08:20:06;100315.69;;;10.27;66.84
53011;BME280;42803;55.762;38.084;2023-04-06T08:22:35;100308.28;;;10.31;65.99
53011;BME280;42803;55.762;38.084;2023-04-06T08:25:05;100329.19;;;10.41;65.82
53011;BME280;42803;55.762;38.084;2023-04-06T08:27:34;100313.75;;;10.63;65.90
53011;BME280;42803;55.762;38.084;2023-04-06T08:30:06;100311.72;;;10.69;64.97
53011;BME280;42803;55.762;38.084;2023-04-06T08:32:35;100315.53;;;10.73;64.39
53011;BME280;42803;55.762;38.084;2023-04-06T08:37:52;100320.06;;;11.05;63.67
53011;BME280;42803;55.762;38.084;2023-04-06T08:40:21;100312.63;;;11.09;63.91
53011;BME280;42803;55.762;38.084;2023-04-06T08:42:52;100317.69;;;10.97;63.59
53011;BME280;42803;55.762;38.084;2023-04-06T08:45:24;100303.81;;;10.88;63.45
53011;BME280;42803;55.762;38.084;2023-04-06T08:47:54;100306.22;;;11.06;63.58
53011;BME280;42803;55.762;38.084;2023-04-06T08:50:26;100313.84;;;11.23;63.23
53011;BME280;42803;55.762;38.084;2023-04-06T08:52:56;100307.63;;;11.02;62.75
53011;BME280;42803;55.762;38.084;2023-04-06T08:55:25;100313.16;;;11.15;62.93
53011;BME280;42803;55.762;38.084;2023-04-06T08:57:55;100323.22;;;11.21;62.10
53011;BME280;42803;55.762;38.084;2023-04-06T09:00:27;100307.84;;;11.34;62.10
53011;BME280;42803;55.762;38.084;2023-04-06T09:02:57;100312.81;;;11.52;61.41
53011;BME280;42803;55.762;38.084;2023-04-06T09:05:27;100312.06;;;11.53;61.29
53011;BME280;42803;55.762;38.084;2023-04-06T09:07:56;100308.00;;;11.77;61.04
53011;BME280;42803;55.762;38.084;2023-04-06T09:10:25;100312.19;;;11.75;60.34
53011;BME280;42803;55.762;38.084;2023-04-06T09:13:03;100302.25;;;11.60;60.52
53011;BME280;42803;55.762;38.084;2023-04-06T09:15:34;100300.28;;;11.58;61.00
53011;BME280;42803;55.762;38.084;2023-04-06T09:18:03;100306.19;;;11.76;59.69
53011;BME280;42803;55.762;38.084;2023-04-06T09:20:33;100295.03;;;11.78;59.50
53011;BME280;42803;55.762;38.084;2023-04-06T09:23:02;100294.03;;;11.97;60.00
53011;BME280;42803;55.762;38.084;2023-04-06T09:25:31;100296.09;;;12.11;58.52
53011;BME280;42803;55.762;38.084;2023-04-06T09:28:02;100297.28;;;12.14;58.20
53011;BME280;42803;55.762;38.084;2023-04-06T09:30:31;100290.72;;;12.19;58.18
53011;BME280;42803;55.762;38.084;2023-04-06T09:33:02;100287.44;;;12.22;57.50
53011;BME280;42803;55.762;38.084;2023-04-06T09:35:32;100309.56;;;12.15;57.34
53011;BME280;42803;55.762;38.084;2023-04-06T09:38:10;100295.56;;;12.25;57.30
53011;BME280;42803;55.762;38.084;2023-04-06T09:40:48;100293.13;;;12.49;56.28
53011;BME280;42803;55.762;38.084;2023-04-06T09:43:28;100289.25;;;12.33;54.75
53011;BME280;42803;55.762;38.084;2023-04-06T09:46:14;100288.25;;;12.21;55.49
53011;BME280;42803;55.762;38.084;2023-04-06T09:49:24;100284.28;;;12.36;55.91
53011;BME280;42803;55.762;38.084;2023-04-06T09:52:00;100282.59;;;12.59;55.41
53011;BME280;42803;55.762;38.084;2023-04-06T09:54:31;100297.47;;;12.70;54.61
53011;BME280;42803;55.762;38.084;2023-04-06T09:57:19;100280.44;;;12.75;54.29
53011;BME280;42803;55.762;38.084;2023-04-06T09:59:58;100276.31;;;12.67;54.72
53011;BME280;42803;55.762;38.084;2023-04-06T10:02:34;100284.78;;;12.75;54.34
53011;BME280;42803;55.762;38.084;2023-04-06T10:05:30;100288.50;;;12.88;54.42
53011;BME280;42803;55.762;38.084;2023-04-06T10:08:20;100283.53;;;12.81;53.53
53011;BME280;42803;55.762;38.084;2023-04-06T10:10:53;100289.84;;;12.83;53.79
53011;BME280;42803;55.762;38.084;2023-04-06T10:13:41;100279.09;;;12.80;53.53
53011;BME280;42803;55.762;38.084;2023-04-06T10:16:12;100279.47;;;13.07;53.55
53011;BME280;42803;55.762;38.084;2023-04-06T10:18:44;100276.66;;;13.15;52.57
53011;BME280;42803;55.762;38.084;2023-04-06T10:21:35;100283.38;;;13.12;51.91
53011;BME280;42803;55.762;38.084;2023-04-06T10:24:08;100285.34;;;13.14;52.31
53011;BME280;42803;55.762;38.084;2023-04-06T10:26:39;100281.00;;;13.15;51.97
53011;BME280;42803;55.762;38.084;2023-04-06T10:29:08;100276.38;;;13.23;52.26
53011;BME280;42803;55.762;38.084;2023-04-06T10:31:41;100277.97;;;13.21;51.75
53011;BME280;42803;55.762;38.084;2023-04-06T10:37:10;100274.97;;;13.16;51.14
53011;BME280;42803;55.762;38.084;2023-04-06T10:39:46;100281.22;;;13.28;51.34
53011;BME280;42803;55.762;38.084;2023-04-06T10:42:37;100281.31;;;13.08;51.03
53011;BME280;42803;55.762;38.084;2023-04-06T10:45:07;100283.47;;;13.02;51.29
53011;BME280;42803;55.762;38.084;2023-04-06T10:47:47;100280.84;;;13.02;51.46
53011;BME280;42803;55.762;38.084;2023-04-06T10:50:17;100273.09;;;13.03;51.12
53011;BME280;42803;55.762;38.084;2023-04-06T10:52:58;100283.72;;;13.27;51.44
53011;BME280;42803;55.762;38.084;2023-04-06T10:55:28;100270.03;;;13.31;51.00
53011;BME280;42803;55.762;38.084;2023-04-06T10:57:57;100276.69;;;13.37;50.98
53011;BME280;42803;55.762;38.084;2023-04-06T11:00:27;100264.25;;;13.13;50.96
53011;BME280;42803;55.762;38.084;2023-04-06T11:03:16;100268.56;;;13.12;50.96
53011;BME280;42803;55.762;38.084;2023-04-06T11:05:46;100275.22;;;13.19;50.84
53011;BME280;42803;55.762;38.084;2023-04-06T11:11:19;100264.13;;;13.33;51.32
53011;BME280;42803;55.762;38.084;2023-04-06T11:13:49;100264.03;;;13.32;51.29
53011;BME280;42803;55.762;38.084;2023-04-06T11:16:19;100268.50;;;13.45;51.50
53011;BME280;42803;55.762;38.084;2023-04-06T11:18:50;100287.06;;;13.36;50.78
53011;BME280;42803;55.762;38.084;2023-04-06T11:21:30;100275.44;;;13.22;50.91
53011;BME280;42803;55.762;38.084;2023-04-06T11:24:09;100276.59;;;13.36;51.07
53011;BME280;42803;55.762;38.084;2023-04-06T11:26:42;100278.88;;;13.21;50.55
53011;BME280;42803;55.762;38.084;2023-04-06T11:29:13;100279.97;;;13.35;51.29
53011;BME280;42803;55.762;38.084;2023-04-06T11:32:00;100271.31;;;13.14;50.59
53011;BME280;42803;55.762;38.084;2023-04-06T11:34:33;100279.16;;;13.24;50.76
53011;BME280;42803;55.762;38.084;2023-04-06T11:37:07;100276.78;;;13.39;51.08
53011;BME280;42803;55.762;38.084;2023-04-06T11:39:40;100274.31;;;13.40;50.72
53011;BME280;42803;55.762;38.084;2023-04-06T11:42:09;100277.25;;;13.33;50.31
53011;BME280;42803;55.762;38.084;2023-04-06T11:44:40;100271.78;;;13.20;51.14
53011;BME280;42803;55.762;38.084;2023-04-06T11:47:13;100271.94;;;13.44;51.20
53011;BME280;42803;55.762;38.084;2023-04-06T11:49:43;100255.81;;;13.39;50.73
53011;BME280;42803;55.762;38.084;2023-04-06T11:52:17;100262.44;;;13.34;50.70
53011;BME280;42803;55.762;38.084;2023-04-06T11:54:49;100264.94;;;13.32;50.74
53011;BME280;42803;55.762;38.084;2023-04-06T11:57:37;100266.66;;;13.32;51.05
53011;BME280;42803;55.762;38.084;2023-04-06T12:00:07;100273.47;;;13.30;50.70
53011;BME280;42803;55.762;38.084;2023-04-06T12:02:37;100256.34;;;13.23;51.18
53011;BME280;42803;55.762;38.084;2023-04-06T12:05:07;100252.72;;;13.11;51.17
53011;BME280;42803;55.762;38.084;2023-04-06T12:07:36;100258.53;;;13.07;50.98
53011;BME280;42803;55.762;38.084;2023-04-06T12:10:08;100264.13;;;13.11;51.26
53011;BME280;42803;55.762;38.084;2023-04-06T12:12:39;100264.13;;;13.11;50.99
53011;BME280;42803;55.762;38.084;2023-04-06T12:15:08;100248.47;;;13.01;50.77
53011;BME280;42803;55.762;38.084;2023-04-06T12:17:38;100257.25;;;13.02;51.16
53011;BME280;42803;55.762;38.084;2023-04-06T12:20:07;100249.28;;;13.12;51.26
53011;BME280;42803;55.762;38.084;2023-04-06T12:22:51;100239.97;;;13.37;51.12
53011;BME280;42803;55.762;38.084;2023-04-06T12:25:22;100244.31;;;13.15;51.03
53011;BME280;42803;55.762;38.084;2023-04-06T12:27:51;100241.22;;;13.09;51.43
53011;BME280;42803;55.762;38.084;2023-04-06T12:30:20;100239.31;;;13.18;51.45
53011;BME280;42803;55.762;38.084;2023-04-06T12:32:50;100231.56;;;13.20;51.34
53011;BME280;42803;55.762;38.084;2023-04-06T12:35:19;100241.44;;;13.12;51.57
53011;BME280;42803;55.762;38.084;2023-04-06T12:37:48;100240.53;;;13.11;51.45
53011;BME280;42803;55.762;38.084;2023-04-06T12:40:17;100243.25;;;13.01;51.04
53011;BME280;42803;55.762;38.084;2023-04-06T12:42:48;100252.63;;;13.09;51.65
53011;BME280;42803;55.762;38.084;2023-04-06T12:45:17;100238.50;;;13.19;51.72
53011;BME280;42803;55.762;38.084;2023-04-06T12:47:46;100238.50;;;13.19;51.27
53011;BME280;42803;55.762;38.084;2023-04-06T12:50:16;100255.25;;;13.09;51.07
53011;BME280;42803;55.762;38.084;2023-04-06T12:52:47;100241.94;;;13.18;51.27
53011;BME280;42803;55.762;38.084;2023-04-06T12:55:16;100239.63;;;13.11;51.56
53011;BME280;42803;55.762;38.084;2023-04-06T12:57:46;100238.00;;;13.01;51.60
53011;BME280;42803;55.762;38.084;2023-04-06T13:00:17;100237.84;;;13.00;51.05
53011;BME280;42803;55.762;38.084;2023-04-06T13:02:46;100246.50;;;12.99;51.63
53011;BME280;42803;55.762;38.084;2023-04-06T13:05:16;100236.50;;;13.05;51.36
53011;BME280;42803;55.762;38.084;2023-04-06T13:07:46;100242.13;;;12.87;50.72
53011;BME280;42803;55.762;38.084;2023-04-06T13:10:15;100238.59;;;12.87;51.10
53011;BME280;42803;55.762;38.084;2023-04-06T13:12:45;100236.63;;;12.84;50.53
53011;BME280;42803;55.762;38.084;2023-04-06T13:15:15;100249.38;;;12.80;49.99
53011;BME280;42803;55.762;38.084;2023-04-06T13:17:45;100238.00;;;12.79;50.04
53011;BME280;42803;55.762;38.084;2023-04-06T13:20:15;100238.53;;;12.75;50.05
53011;BME280;42803;55.762;38.084;2023-04-06T13:22:44;100232.38;;;12.75;49.98
53011;BME280;42803;55.762;38.084;2023-04-06T13:25:13;100233.03;;;12.72;49.86
53011;BME280;42803;55.762;38.084;2023-04-06T13:27:42;100233.59;;;12.68;49.29
53011;BME280;42803;55.762;38.084;2023-04-06T13:30:16;100230.72;;;12.65;49.29
53011;BME280;42803;55.762;38.084;2023-04-06T13:32:45;100234.25;;;12.65;49.00
53011;BME280;42803;55.762;38.084;2023-04-06T13:35:33;100239.84;;;12.70;48.98